This demonstration page uses our WeatherBlox Daily Observations layout. Learn more.

41.55636, -103.73856

Hourly Observations for August 21, 2019

Temp ( °F °C ) Dew Point ( °F °C ) Humidity (%) Winds ( mph kmh ) Pressure ( in mb ) Visibility ( mi km ) Precip ( " mm )
12:58 am 00:58 Cloudy with Light Thunderstorms 58 14.6 56 13.2 91 91 S 8 13 30 1016 10 16.09344 0.24 6.096
1:58 am 01:58 Cloudy with Showers 58 14.5 56 13.5 94 94 SSE 7 11 30.03 1017 10 16.09344 0.11 2.794
2:58 am 02:58 Mostly Cloudy 59 14.8 56 13.4 91 91 ESE 15 24 29.97 1015 10 16.09344 0.02 0.508
3:58 am 03:58 Mostly Clear 60 15.5 55 12.5 82 82 E 10 17 29.94 1014 10 16.09344 0 0
4:58 am 04:58 Clear 58 14.7 54 12.3 86 86 E 5 7 29.94 1014 10 16.09344 0 0
5:58 am 05:58 Mostly Clear 57 14 54 12.2 89 89 SSW 8 13 30 1016 10 16.09344 0 0
6:58 am 06:58 Mostly Cloudy 58 14.2 55 12.8 91 91 SW 6 9 30.06 1018 10 16.09344 0 0
7:58 am 07:58 Mostly Cloudy 60 15.5 56 13.5 88 88 WSW 6 9 30.06 1018 10 16.09344 0 0
9:58 am 09:58 Sunny 68 20 55 12.6 63 63 E 3 6 30.06 1018 10 16.09344 0 0
10:58 am 10:58 Sunny 69 20.8 56 13.4 63 63 ESE 3 6 30.06 1018 10 16.09344 0 0
11:58 am 11:58 Sunny 72 22.1 59 14.8 63 63 E 8 13 30.09 1019 10 16.09344 0 0
12:58 pm 12:58 Sunny 73 23 59 15.2 62 62 ESE 8 13 30.06 1018 10 16.09344 0 0
1:58 pm 13:58 Sunny 74 23.4 59 15.2 60 60 E 3 6 30.03 1017 10 16.09344 0 0
2:58 pm 14:58 Sunny 77 25.2 60 15.6 55 55 ESE 6 9 30 1016 10 16.09344 0 0
3:58 pm 15:58 Sunny 78 25.3 57 13.8 49 49 ESE 10 17 29.97 1015 10 16.09344 0 0
4:58 pm 16:58 Sunny 76 24.4 58 14.7 55 55 ESE 8 13 29.97 1015 10 16.09344 0 0
5:58 pm 17:58 Sunny 73 22.8 60 15.3 63 63 ESE 7 11 29.97 1015 10 16.09344 0 0
6:58 pm 18:58 Sunny 70 21.2 61 16 72 72 SE 7 11 30 1016 10 16.09344 0 0
7:58 pm 19:58 Clear 67 19.2 60 15.4 79 79 SE 8 13 30 1016 10 16.09344 0 0
8:58 pm 20:58 Partly Cloudy 65 18.5 60 15.4 82 82 SE 8 13 30 1016 10 16.09344 0 0
9:58 pm 21:58 Mostly Clear 63 17.4 60 15.8 90 90 ESE 3 6 30.03 1017 10 16.09344 0 0
10:58 pm 22:58 Mostly Cloudy 67 19.2 62 16.4 84 84 NE 7 11 30.03 1017 10 16.09344 0 0
11:58 pm 23:58 Cloudy with Heavy Showers 56 13.5 54 12.3 93 93 Calm 30.03 1017 10 16.09344 0.48 12.192

Powered by AerisWeather